createdAt,value
2018-02-19T00:00:05.236Z,995.67
2018-02-19T00:01:05.412Z,995.70
2018-02-19T00:02:05.586Z,995.70
2018-02-19T00:03:05.761Z,995.69
2018-02-19T00:04:05.935Z,995.65
2018-02-19T00:05:06.110Z,995.67
2018-02-19T00:06:06.290Z,995.70
2018-02-19T00:07:06.459Z,995.70
2018-02-19T00:08:06.677Z,995.70
2018-02-19T00:09:06.810Z,995.72
2018-02-19T00:10:06.986Z,995.72
2018-02-19T00:11:07.156Z,995.71
2018-02-19T00:12:07.331Z,995.69
2018-02-19T00:13:07.504Z,995.70
2018-02-19T00:14:07.676Z,995.70
2018-02-19T00:15:07.854Z,995.68
2018-02-19T00:16:08.027Z,995.68
2018-02-19T00:17:08.208Z,995.64
2018-02-19T00:18:08.377Z,995.65
2018-02-19T00:19:08.578Z,995.63
2018-02-19T00:20:08.723Z,995.63
2018-02-19T00:21:08.898Z,995.61
2018-02-19T00:22:09.073Z,995.63
2018-02-19T00:23:09.247Z,995.64
2018-02-19T00:24:09.422Z,995.61
2018-02-19T00:25:09.594Z,995.64
2018-02-19T00:26:09.772Z,995.65
2018-02-19T00:27:09.946Z,995.59
2018-02-19T00:28:10.127Z,995.65
2018-02-19T00:29:10.293Z,995.62
2018-02-19T00:30:10.466Z,995.55
2018-02-19T00:31:10.640Z,995.55
2018-02-19T00:32:10.816Z,995.53
2018-02-19T00:33:10.990Z,995.50
2018-02-19T00:34:11.165Z,995.50
2018-02-19T00:35:11.340Z,995.45
2018-02-19T00:36:11.512Z,995.45
2018-02-19T00:37:11.689Z,995.43
2018-02-19T00:38:11.863Z,995.45
2018-02-19T00:39:12.045Z,995.39
2018-02-19T00:40:12.211Z,995.43
2018-02-19T00:41:12.385Z,995.41
2018-02-19T00:42:12.562Z,995.40
2018-02-19T00:43:12.733Z,995.39
2018-02-19T00:44:12.908Z,995.36
2018-02-19T00:45:13.083Z,995.33
2018-02-19T00:46:13.259Z,995.29
2018-02-19T00:47:13.434Z,995.26
2018-02-19T00:48:13.609Z,995.26
2018-02-19T00:49:13.790Z,995.21
2018-02-19T00:50:13.964Z,995.22
2018-02-19T00:51:14.140Z,995.20
2018-02-19T00:52:14.314Z,995.22
2018-02-19T00:53:14.489Z,995.22
2018-02-19T00:54:14.660Z,995.25
2018-02-19T00:55:14.836Z,995.21
2018-02-19T00:56:15.010Z,995.23
2018-02-19T00:57:15.184Z,995.19
2018-02-19T00:58:15.359Z,995.25
2018-02-19T00:59:15.584Z,995.20
2018-02-19T01:00:15.707Z,995.17
2018-02-19T01:01:15.884Z,995.19
2018-02-19T01:02:16.061Z,995.16
2018-02-19T01:03:16.235Z,995.16
2018-02-19T01:04:16.417Z,995.13
2018-02-19T01:05:16.581Z,995.15
2018-02-19T01:06:16.756Z,995.11
2018-02-19T01:07:16.932Z,995.11
2018-02-19T01:08:17.104Z,995.08
2018-02-19T01:09:17.279Z,995.11
2018-02-19T01:10:17.454Z,995.11
2018-02-19T01:11:17.628Z,995.08
2018-02-19T01:12:17.804Z,995.07
2018-02-19T01:13:17.978Z,995.05
2018-02-19T01:14:18.152Z,995.07
2018-02-19T01:15:18.332Z,995.00
2018-02-19T01:16:18.499Z,995.01
2018-02-19T01:17:18.674Z,995.03
2018-02-19T01:18:18.849Z,994.98
2018-02-19T01:19:19.023Z,995.01
2018-02-19T01:20:19.198Z,995.00
2018-02-19T01:21:19.376Z,995.02
2018-02-19T01:22:19.547Z,994.98
2018-02-19T01:23:19.719Z,995.01
2018-02-19T01:24:19.898Z,994.96
2018-02-19T01:25:20.069Z,995.00
2018-02-19T01:26:20.250Z,994.98
2018-02-19T01:27:20.417Z,994.95
2018-02-19T01:28:20.590Z,994.91
2018-02-19T01:29:20.765Z,994.92
2018-02-19T01:30:20.939Z,994.88
2018-02-19T01:31:21.109Z,994.91
2018-02-19T01:32:21.291Z,994.89
2018-02-19T01:33:21.460Z,994.85
2018-02-19T01:34:21.638Z,994.86
2018-02-19T01:35:21.812Z,994.88
2018-02-19T01:36:21.987Z,994.84
2018-02-19T01:37:22.162Z,994.87
2018-02-19T01:38:22.333Z,994.87
2018-02-19T01:39:22.507Z,994.84
2018-02-19T01:40:22.683Z,994.83
2018-02-19T01:41:22.858Z,994.82
2018-02-19T01:42:23.033Z,994.80
2018-02-19T01:43:23.207Z,994.77
2018-02-19T01:44:23.380Z,994.76
2018-02-19T01:45:23.556Z,994.77
2018-02-19T01:46:23.731Z,994.79
2018-02-19T01:47:23.905Z,994.76
2018-02-19T01:48:24.080Z,994.74
2018-02-19T01:49:24.250Z,994.80
2018-02-19T01:50:24.427Z,994.79
2018-02-19T01:51:24.604Z,994.74
2018-02-19T01:52:24.776Z,994.72
2018-02-19T01:53:24.950Z,994.71
2018-02-19T01:54:25.126Z,994.69
2018-02-19T01:55:25.298Z,994.68
2018-02-19T01:56:25.474Z,994.70
2018-02-19T01:57:32.769Z,994.67
2018-02-19T01:58:32.963Z,994.71
2018-02-19T01:59:32.150Z,994.69
2018-02-19T02:00:32.468Z,994.66
2018-02-19T02:01:33.290Z,994.64
2018-02-19T02:02:35.093Z,994.63
2018-02-19T02:03:34.818Z,994.59
2018-02-19T02:04:27.429Z,994.61
2018-02-19T02:05:27.603Z,994.56
2018-02-19T02:06:27.776Z,994.56
2018-02-19T02:07:27.950Z,994.54
2018-02-19T02:08:28.123Z,994.56
2018-02-19T02:09:28.299Z,994.53
2018-02-19T02:10:28.473Z,994.54
2018-02-19T02:11:28.649Z,994.51
2018-02-19T02:12:28.824Z,994.50
2018-02-19T02:13:28.999Z,994.53
2018-02-19T02:14:29.172Z,994.48
2018-02-19T02:15:29.345Z,994.46
2018-02-19T02:16:29.519Z,994.49
2018-02-19T02:17:29.693Z,994.47
2018-02-19T02:18:29.866Z,994.45
2018-02-19T02:19:30.040Z,994.47
2018-02-19T02:20:30.216Z,994.49
2018-02-19T02:21:30.389Z,994.46
2018-02-19T02:22:30.566Z,994.46
2018-02-19T02:23:30.742Z,994.42
2018-02-19T02:24:30.916Z,994.42
2018-02-19T02:25:31.089Z,994.43
2018-02-19T02:26:31.265Z,994.45
2018-02-19T02:27:31.442Z,994.41
2018-02-19T02:28:31.614Z,994.41
2018-02-19T02:29:31.789Z,994.40
2018-02-19T02:30:31.963Z,994.39
2018-02-19T02:31:32.138Z,994.38
2018-02-19T02:32:32.317Z,994.37
2018-02-19T02:33:32.486Z,994.38
2018-02-19T02:34:32.663Z,994.38
2018-02-19T02:35:32.837Z,994.40
2018-02-19T02:36:33.020Z,994.40
2018-02-19T02:37:33.187Z,994.41
2018-02-19T02:38:33.359Z,994.39
2018-02-19T02:39:33.534Z,994.39
2018-02-19T02:40:33.707Z,994.41
2018-02-19T02:41:33.882Z,994.43
2018-02-19T02:42:34.056Z,994.41
2018-02-19T02:43:34.230Z,994.41
2018-02-19T02:44:34.405Z,994.40
2018-02-19T02:45:34.581Z,994.43
2018-02-19T02:46:34.756Z,994.42
2018-02-19T02:47:34.937Z,994.41
2018-02-19T02:48:35.106Z,994.38
2018-02-19T02:49:35.280Z,994.40
2018-02-19T02:50:35.453Z,994.36
2018-02-19T02:51:35.628Z,994.37
2018-02-19T02:52:35.803Z,994.35
2018-02-19T02:53:35.977Z,994.34
2018-02-19T02:54:36.152Z,994.35
2018-02-19T02:55:36.330Z,994.39
2018-02-19T02:56:36.502Z,994.36
2018-02-19T02:57:36.678Z,994.32
2018-02-19T02:58:36.855Z,994.37
2018-02-19T02:59:37.030Z,994.32
2018-02-19T03:00:37.206Z,994.33
2018-02-19T03:01:37.388Z,994.30
2018-02-19T03:02:37.553Z,994.27
2018-02-19T03:03:37.728Z,994.28
2018-02-19T03:04:37.902Z,994.23
2018-02-19T03:05:38.077Z,994.20
2018-02-19T03:06:38.252Z,994.19
2018-02-19T03:07:38.427Z,994.20
2018-02-19T03:08:38.601Z,994.24
2018-02-19T03:09:38.775Z,994.24
2018-02-19T03:10:38.957Z,994.22
2018-02-19T03:11:39.128Z,994.25
2018-02-19T03:12:39.308Z,994.16
2018-02-19T03:13:39.475Z,994.16
2018-02-19T03:14:39.648Z,994.16
2018-02-19T03:15:39.822Z,994.12
2018-02-19T03:16:39.997Z,994.08
2018-02-19T03:17:40.172Z,994.11
2018-02-19T03:18:40.346Z,994.13
2018-02-19T03:19:40.525Z,994.09
2018-02-19T03:20:40.695Z,994.06
2018-02-19T03:21:40.871Z,994.05
2018-02-19T03:22:41.047Z,994.02
2018-02-19T03:23:41.228Z,994.05
2018-02-19T03:24:41.399Z,993.97
2018-02-19T03:25:41.574Z,994.01
2018-02-19T03:26:41.748Z,994.02
2018-02-19T03:27:41.921Z,993.99
2018-02-19T03:28:42.096Z,994.00
2018-02-19T03:29:42.271Z,993.98
2018-02-19T03:30:42.446Z,993.98
2018-02-19T03:31:42.624Z,994.02
2018-02-19T03:32:42.797Z,993.99
2018-02-19T03:33:42.972Z,994.01
2018-02-19T03:34:43.145Z,994.03
2018-02-19T03:35:43.321Z,994.02
2018-02-19T03:36:43.496Z,994.02
2018-02-19T03:37:43.675Z,994.03
2018-02-19T03:38:43.853Z,994.03
2018-02-19T03:39:44.027Z,994.07
2018-02-19T03:40:44.207Z,994.04
2018-02-19T03:41:44.373Z,994.04
2018-02-19T03:42:44.548Z,994.04
2018-02-19T03:43:44.746Z,993.99
2018-02-19T03:44:44.907Z,993.99
2018-02-19T03:45:45.080Z,993.99
2018-02-19T03:46:45.256Z,994.00
2018-02-19T03:47:45.429Z,993.98
2018-02-19T03:48:45.603Z,994.02
2018-02-19T03:49:45.779Z,994.02
2018-02-19T03:50:45.954Z,994.02
2018-02-19T03:51:46.125Z,994.01
2018-02-19T03:52:46.303Z,993.96
2018-02-19T03:53:46.473Z,993.98
2018-02-19T03:54:46.658Z,993.99
2018-02-19T03:55:46.824Z,993.91
2018-02-19T03:56:47.000Z,993.94
2018-02-19T03:57:47.174Z,993.91
2018-02-19T03:58:47.350Z,993.92
2018-02-19T03:59:47.525Z,993.86
2018-02-19T04:00:47.703Z,993.89
2018-02-19T04:01:47.875Z,993.89
2018-02-19T04:02:48.048Z,993.88
2018-02-19T04:03:48.224Z,993.90
2018-02-19T04:04:48.403Z,993.90
2018-02-19T04:05:48.576Z,993.92
2018-02-19T04:06:48.743Z,993.87
2018-02-19T04:07:48.918Z,993.90
2018-02-19T04:08:49.092Z,993.87
2018-02-19T04:09:49.268Z,993.88
2018-02-19T04:10:49.442Z,993.85
2018-02-19T04:11:49.618Z,993.85
2018-02-19T04:12:49.791Z,993.86
2018-02-19T04:13:49.964Z,993.84
2018-02-19T04:14:50.145Z,993.80
2018-02-19T04:15:50.317Z,993.81
2018-02-19T04:16:50.495Z,993.79
2018-02-19T04:17:50.671Z,993.81
2018-02-19T04:18:50.845Z,993.78
2018-02-19T04:19:51.020Z,993.76
2018-02-19T04:20:51.193Z,993.73
2018-02-19T04:21:51.367Z,993.73
2018-02-19T04:22:51.542Z,993.70
2018-02-19T04:23:51.717Z,993.68
2018-02-19T04:24:51.891Z,993.67
2018-02-19T04:25:52.066Z,993.66
2018-02-19T04:26:52.241Z,993.68
2018-02-19T04:27:52.413Z,993.70
2018-02-19T04:28:52.590Z,993.69
2018-02-19T04:29:52.766Z,993.70
2018-02-19T04:30:52.945Z,993.69
2018-02-19T04:31:53.113Z,993.70
2018-02-19T04:32:53.288Z,993.72
2018-02-19T04:33:53.462Z,993.70
2018-02-19T04:34:53.637Z,993.71
2018-02-19T04:35:53.812Z,993.64
2018-02-19T04:36:53.987Z,993.62
2018-02-19T04:37:54.166Z,993.64
2018-02-19T04:38:54.340Z,993.69
2018-02-19T04:39:54.515Z,993.68
2018-02-19T04:40:54.689Z,993.66
2018-02-19T04:41:54.865Z,993.64
2018-02-19T04:42:55.040Z,993.62
2018-02-19T04:43:55.215Z,993.64
2018-02-19T04:44:55.390Z,993.65
2018-02-19T04:45:55.562Z,993.62
2018-02-19T04:46:55.739Z,993.61
2018-02-19T04:47:55.910Z,993.61
2018-02-19T04:48:56.084Z,993.56
2018-02-19T04:49:56.254Z,993.55
2018-02-19T04:51:03.553Z,993.55
2018-02-19T04:52:03.743Z,993.54
2018-02-19T04:53:03.951Z,993.51
2018-02-19T04:54:04.132Z,993.52
2018-02-19T04:55:04.320Z,993.46
2018-02-19T04:56:04.509Z,993.48
2018-02-19T04:57:04.707Z,993.50
2018-02-19T04:58:04.908Z,993.47
2018-02-19T04:58:57.969Z,993.48
2018-02-19T04:59:58.144Z,993.48
2018-02-19T05:00:58.321Z,993.46
2018-02-19T05:01:58.493Z,993.46
2018-02-19T05:02:58.665Z,993.47
2018-02-19T05:03:58.840Z,993.45
2018-02-19T05:04:59.016Z,993.41
2018-02-19T05:05:59.185Z,993.42
2018-02-19T05:06:59.352Z,993.43
2018-02-19T05:07:59.527Z,993.46
2018-02-19T05:08:59.701Z,993.46
2018-02-19T05:09:59.872Z,993.46
2018-02-19T05:11:00.049Z,993.50
2018-02-19T05:12:00.224Z,993.46
2018-02-19T05:13:00.401Z,993.46
2018-02-19T05:14:00.638Z,993.42
2018-02-19T05:15:00.751Z,993.41
2018-02-19T05:16:00.924Z,993.37
2018-02-19T05:17:01.099Z,993.37
2018-02-19T05:18:01.273Z,993.38
2018-02-19T05:19:01.447Z,993.33
2018-02-19T05:20:01.622Z,993.35
2018-02-19T05:21:01.791Z,993.37
2018-02-19T05:22:01.971Z,993.36
2018-02-19T05:23:02.172Z,993.37
2018-02-19T05:24:02.321Z,993.33
2018-02-19T05:25:02.496Z,993.36
2018-02-19T05:26:02.670Z,993.38
2018-02-19T05:27:02.845Z,993.38
2018-02-19T05:28:03.016Z,993.33
2018-02-19T05:29:03.234Z,993.38
2018-02-19T05:30:03.367Z,993.37
2018-02-19T05:31:03.540Z,993.37
2018-02-19T05:32:03.716Z,993.33
2018-02-19T05:33:03.890Z,993.34
2018-02-19T05:34:04.065Z,993.34
2018-02-19T05:35:04.240Z,993.34
2018-02-19T05:36:04.416Z,993.35
2018-02-19T05:37:04.596Z,993.33
2018-02-19T05:38:04.770Z,993.32
2018-02-19T05:39:04.941Z,993.33
2018-02-19T05:40:05.112Z,993.36
2018-02-19T05:41:05.287Z,993.36
2018-02-19T05:42:05.464Z,993.36
2018-02-19T05:43:05.636Z,993.37
2018-02-19T05:44:05.810Z,993.38
2018-02-19T05:45:05.985Z,993.37
2018-02-19T05:46:06.158Z,993.40
2018-02-19T05:47:06.335Z,993.45
2018-02-19T05:48:06.511Z,993.38
2018-02-19T05:49:06.689Z,993.38
2018-02-19T05:50:06.856Z,993.39
2018-02-19T05:51:07.031Z,993.37
2018-02-19T05:52:07.206Z,993.37
2018-02-19T05:53:07.380Z,993.38
2018-02-19T05:54:07.547Z,993.37
2018-02-19T05:55:07.730Z,993.42
2018-02-19T05:56:07.904Z,993.41
2018-02-19T05:57:08.077Z,993.40
2018-02-19T05:58:08.254Z,993.40
2018-02-19T05:59:08.431Z,993.41
2018-02-19T06:00:08.614Z,993.41
2018-02-19T06:01:08.775Z,993.38
2018-02-19T06:02:08.950Z,993.43
2018-02-19T06:03:09.124Z,993.42
2018-02-19T06:04:09.298Z,993.47
2018-02-19T06:05:09.474Z,993.49
2018-02-19T06:06:09.648Z,993.52
2018-02-19T06:07:09.826Z,993.47
2018-02-19T06:08:10.000Z,993.46
2018-02-19T06:09:10.175Z,993.47
2018-02-19T06:10:10.350Z,993.55
2018-02-19T06:11:10.526Z,993.54
2018-02-19T06:12:10.702Z,993.53
2018-02-19T06:13:10.877Z,993.54
2018-02-19T06:14:11.051Z,993.53
2018-02-19T06:15:11.222Z,993.53
2018-02-19T06:16:11.398Z,993.55
2018-02-19T06:17:11.573Z,993.50
2018-02-19T06:18:11.751Z,993.44
2018-02-19T06:19:11.925Z,993.47
2018-02-19T06:20:12.094Z,993.48
2018-02-19T06:21:12.268Z,993.47
2018-02-19T06:22:12.443Z,993.42
2018-02-19T06:23:12.613Z,993.46
2018-02-19T06:24:12.788Z,993.51
2018-02-19T06:25:12.962Z,993.52
2018-02-19T06:26:13.137Z,993.51
2018-02-19T06:27:13.311Z,993.47
2018-02-19T06:28:13.486Z,993.51
2018-02-19T06:29:13.661Z,993.49
2018-02-19T06:30:13.835Z,993.49
2018-02-19T06:31:14.010Z,993.50
2018-02-19T06:32:14.184Z,993.48
2018-02-19T06:33:14.363Z,993.50
2018-02-19T06:34:14.530Z,993.46
2018-02-19T06:35:14.699Z,993.42
2018-02-19T06:36:14.881Z,993.36
2018-02-19T06:37:15.054Z,993.36
2018-02-19T06:38:15.226Z,993.36
2018-02-19T06:39:15.404Z,993.31
2018-02-19T06:40:15.579Z,993.35
2018-02-19T06:41:15.753Z,993.30
2018-02-19T06:42:15.931Z,993.33
2018-02-19T06:43:16.102Z,993.32
2018-02-19T06:44:16.282Z,993.32
2018-02-19T06:45:16.449Z,993.35
2018-02-19T06:46:16.623Z,993.34
2018-02-19T06:47:16.798Z,993.36
2018-02-19T06:48:16.973Z,993.35
2018-02-19T06:49:17.148Z,993.36
2018-02-19T06:50:17.322Z,993.41
2018-02-19T06:51:17.497Z,993.36
2018-02-19T06:52:17.668Z,993.43
2018-02-19T06:53:17.845Z,993.33
2018-02-19T06:54:18.021Z,993.35
2018-02-19T06:55:18.200Z,993.35
2018-02-19T06:56:18.367Z,993.31
2018-02-19T06:57:18.542Z,993.32
2018-02-19T06:58:18.716Z,993.31
2018-02-19T06:59:18.890Z,993.30
2018-02-19T07:00:19.080Z,993.29
2018-02-19T07:01:19.256Z,993.26
2018-02-19T07:02:19.428Z,993.28
2018-02-19T07:03:19.649Z,993.25
2018-02-19T07:04:19.778Z,993.24
2018-02-19T07:05:19.952Z,993.23
2018-02-19T07:06:20.122Z,993.22
2018-02-19T07:07:20.305Z,993.22
2018-02-19T07:08:20.475Z,993.21
2018-02-19T07:09:20.651Z,993.24
2018-02-19T07:10:20.826Z,993.29
2018-02-19T07:11:20.999Z,993.24
2018-02-19T07:12:21.174Z,993.26
2018-02-19T07:13:21.349Z,993.30
2018-02-19T07:14:21.523Z,993.22
2018-02-19T07:15:21.705Z,993.30
2018-02-19T07:16:22.203Z,993.28
2018-02-19T07:17:22.046Z,993.27
2018-02-19T07:18:22.222Z,993.28
2018-02-19T07:19:22.395Z,993.28
2018-02-19T07:20:22.569Z,993.26
2018-02-19T07:21:22.755Z,993.24
2018-02-19T07:22:22.926Z,993.25
2018-02-19T07:23:23.201Z,993.26
2018-02-19T07:24:23.278Z,993.26
2018-02-19T07:25:23.450Z,993.23
2018-02-19T07:26:23.624Z,993.25
2018-02-19T07:27:23.797Z,993.22
2018-02-19T07:28:23.972Z,993.24
2018-02-19T07:29:24.146Z,993.21
2018-02-19T07:30:24.319Z,993.17
2018-02-19T07:31:24.491Z,993.22
2018-02-19T07:32:24.667Z,993.20
2018-02-19T07:33:24.873Z,993.22
2018-02-19T07:34:25.020Z,993.21
2018-02-19T07:35:25.188Z,993.22
2018-02-19T07:36:25.377Z,993.24
2018-02-19T07:37:25.541Z,993.25
2018-02-19T07:38:25.717Z,993.25
2018-02-19T07:39:25.891Z,993.25
2018-02-19T07:40:26.066Z,993.21
2018-02-19T07:41:26.240Z,993.20
2018-02-19T07:42:26.411Z,993.18
2018-02-19T07:43:26.589Z,993.20
2018-02-19T07:44:33.896Z,993.23
2018-02-19T07:45:26.954Z,993.21
2018-02-19T07:46:34.251Z,993.21
2018-02-19T07:47:34.440Z,993.22
2018-02-19T07:48:34.643Z,993.23
2018-02-19T07:49:27.702Z,993.20
2018-02-19T07:50:34.993Z,993.26
2018-02-19T07:51:34.178Z,993.25
2018-02-19T07:52:28.393Z,993.24
2018-02-19T07:53:28.566Z,993.27
2018-02-19T07:54:28.771Z,993.30
2018-02-19T07:55:28.937Z,993.27
2018-02-19T07:56:29.100Z,993.26
2018-02-19T07:57:29.631Z,993.24
2018-02-19T07:58:29.814Z,993.26
2018-02-19T07:59:29.642Z,993.24
2018-02-19T08:00:30.140Z,993.21
2018-02-19T08:01:30.307Z,993.22
2018-02-19T08:02:30.484Z,993.17
2018-02-19T08:03:30.654Z,993.20
2018-02-19T08:04:30.482Z,993.17
2018-02-19T08:05:30.659Z,993.16
2018-02-19T08:06:30.828Z,993.20
2018-02-19T08:07:31.005Z,993.16
2018-02-19T08:08:31.177Z,993.16
2018-02-19T08:09:31.353Z,993.18
2018-02-19T08:10:31.526Z,993.18
2018-02-19T08:11:31.700Z,993.18
2018-02-19T08:12:31.922Z,993.19
2018-02-19T08:13:32.054Z,993.16
2018-02-19T08:14:32.222Z,993.14
2018-02-19T08:15:32.396Z,993.14
2018-02-19T08:16:32.578Z,993.11
2018-02-19T08:17:32.744Z,993.10
2018-02-19T08:18:32.917Z,993.09
2018-02-19T08:19:33.092Z,993.11
2018-02-19T08:20:33.266Z,993.13
2018-02-19T08:21:33.441Z,993.14
2018-02-19T08:22:33.620Z,993.11
2018-02-19T08:23:33.788Z,993.13
2018-02-19T08:24:33.966Z,993.10
2018-02-19T08:25:34.141Z,993.10
2018-02-19T08:26:34.318Z,993.09
2018-02-19T08:27:34.497Z,993.07
2018-02-19T08:28:34.662Z,993.04
2018-02-19T08:29:34.838Z,993.05
2018-02-19T08:30:35.012Z,993.03
2018-02-19T08:31:35.187Z,993.07
2018-02-19T08:32:35.361Z,993.00
2018-02-19T08:33:35.535Z,993.04
2018-02-19T08:34:35.760Z,992.99
2018-02-19T08:35:35.883Z,992.96
2018-02-19T08:36:36.061Z,992.99
2018-02-19T08:37:36.237Z,992.98
2018-02-19T08:38:36.415Z,992.95
2018-02-19T08:39:36.592Z,992.94
2018-02-19T08:40:36.765Z,992.93
2018-02-19T08:41:36.938Z,992.91
2018-02-19T08:42:37.115Z,992.91
2018-02-19T08:43:37.289Z,992.90
2018-02-19T08:44:37.464Z,992.89
2018-02-19T08:45:37.643Z,992.94
2018-02-19T08:46:37.813Z,992.91
2018-02-19T08:47:37.986Z,992.93
2018-02-19T08:48:38.162Z,992.93
2018-02-19T08:49:38.335Z,992.91
2018-02-19T08:50:38.512Z,992.89
2018-02-19T08:51:38.692Z,992.86
2018-02-19T08:52:38.865Z,992.87
2018-02-19T08:53:39.034Z,992.82
2018-02-19T08:54:39.208Z,992.85
2018-02-19T08:55:39.383Z,992.87
2018-02-19T08:56:39.557Z,992.81
2018-02-19T08:57:39.733Z,992.83
2018-02-19T08:58:39.906Z,992.83
2018-02-19T08:59:40.082Z,992.78
2018-02-19T09:00:40.260Z,992.79
2018-02-19T09:01:40.435Z,992.79
2018-02-19T09:02:40.704Z,992.76
2018-02-19T09:03:40.783Z,992.74
2018-02-19T09:04:40.959Z,992.75
2018-02-19T09:05:41.163Z,992.78
2018-02-19T09:06:41.311Z,992.76
2018-02-19T09:07:41.481Z,992.72
2018-02-19T09:08:41.655Z,992.73
2018-02-19T09:09:41.831Z,992.73
2018-02-19T09:10:42.006Z,992.71
2018-02-19T09:11:42.180Z,992.70
2018-02-19T09:12:42.355Z,992.71
2018-02-19T09:13:42.533Z,992.68
2018-02-19T09:14:42.703Z,992.65
2018-02-19T09:15:42.880Z,992.65
2018-02-19T09:16:43.054Z,992.67
2018-02-19T09:17:43.234Z,992.66
2018-02-19T09:18:43.401Z,992.67
2018-02-19T09:19:43.576Z,992.70
2018-02-19T09:20:43.749Z,992.63
2018-02-19T09:21:43.926Z,992.58
2018-02-19T09:22:44.107Z,992.60
2018-02-19T09:23:44.274Z,992.57
2018-02-19T09:24:44.448Z,992.53
2018-02-19T09:25:44.621Z,992.51
2018-02-19T09:26:44.800Z,992.54
2018-02-19T09:27:44.972Z,992.50
2018-02-19T09:28:45.145Z,992.48
2018-02-19T09:29:45.318Z,992.46
2018-02-19T09:30:45.491Z,992.45
2018-02-19T09:31:45.668Z,992.44
2018-02-19T09:32:45.843Z,992.43
2018-02-19T09:33:46.017Z,992.42
2018-02-19T09:34:46.191Z,992.45
2018-02-19T09:35:46.366Z,992.45
2018-02-19T09:36:46.540Z,992.45
2018-02-19T09:37:46.717Z,992.45
2018-02-19T09:38:46.891Z,992.43
2018-02-19T09:39:47.065Z,992.40
2018-02-19T09:40:47.244Z,992.41
2018-02-19T09:41:47.415Z,992.43
2018-02-19T09:42:47.588Z,992.42
2018-02-19T09:43:47.764Z,992.41
2018-02-19T09:44:47.935Z,992.42
2018-02-19T09:45:48.116Z,992.34
2018-02-19T09:46:48.290Z,992.37
2018-02-19T09:47:48.469Z,992.37
2018-02-19T09:48:48.640Z,992.39
2018-02-19T09:49:48.815Z,992.37
2018-02-19T09:50:48.991Z,992.37
2018-02-19T09:51:49.159Z,992.40
2018-02-19T09:52:49.337Z,992.39
2018-02-19T09:53:49.510Z,992.37
2018-02-19T09:54:49.682Z,992.38
2018-02-19T09:55:49.857Z,992.35
2018-02-19T09:56:50.033Z,992.40
2018-02-19T09:57:50.207Z,992.38
2018-02-19T09:58:50.436Z,992.36
2018-02-19T09:59:50.557Z,992.36
2018-02-19T10:00:50.737Z,992.38
2018-02-19T10:01:50.911Z,992.39
2018-02-19T10:02:51.085Z,992.38
2018-02-19T10:03:51.263Z,992.41
2018-02-19T10:04:51.433Z,992.36
2018-02-19T10:05:51.611Z,992.31
2018-02-19T10:06:51.784Z,992.30
2018-02-19T10:07:51.958Z,992.22
2018-02-19T10:08:52.133Z,992.28
2018-02-19T10:09:52.309Z,992.22
2018-02-19T10:10:52.482Z,992.17
2018-02-19T10:11:52.656Z,992.19
2018-02-19T10:12:52.829Z,992.18
2018-02-19T10:13:53.008Z,992.20
2018-02-19T10:14:53.181Z,992.19
2018-02-19T10:15:53.361Z,992.20
2018-02-19T10:16:53.541Z,992.22
2018-02-19T10:17:53.695Z,992.24
2018-02-19T10:18:53.868Z,992.22
2018-02-19T10:19:54.043Z,992.20
2018-02-19T10:20:54.215Z,992.21
2018-02-19T10:21:54.392Z,992.19
2018-02-19T10:22:54.566Z,992.22
2018-02-19T10:23:54.746Z,992.24
2018-02-19T10:24:54.914Z,992.24
2018-02-19T10:25:55.088Z,992.26
2018-02-19T10:26:55.263Z,992.21
2018-02-19T10:27:55.437Z,992.17
2018-02-19T10:28:55.612Z,992.15
2018-02-19T10:29:55.787Z,992.14
2018-02-19T10:30:55.961Z,992.13
2018-02-19T10:31:56.134Z,992.04
2018-02-19T10:33:03.421Z,992.08
2018-02-19T10:34:03.609Z,992.05
2018-02-19T10:34:56.679Z,992.04
2018-02-19T10:36:03.973Z,992.03
2018-02-19T10:37:04.367Z,992.01
2018-02-19T10:38:03.325Z,992.03
2018-02-19T10:38:57.539Z,991.99
2018-02-19T10:39:57.715Z,992.04
2018-02-19T10:40:57.905Z,992.01
2018-02-19T10:41:58.071Z,992.03
2018-02-19T10:42:58.248Z,992.05
2018-02-19T10:43:58.420Z,992.03
2018-02-19T10:44:58.595Z,992.04
2018-02-19T10:45:58.771Z,992.01
2018-02-19T10:46:58.945Z,992.01
2018-02-19T10:47:59.121Z,991.93
2018-02-19T10:48:59.295Z,991.90
2018-02-19T10:49:59.470Z,991.91
2018-02-19T10:51:00.013Z,991.91
2018-02-19T10:51:59.819Z,991.89
2018-02-19T10:53:00.360Z,991.92
2018-02-19T10:54:00.215Z,991.91
2018-02-19T10:55:00.505Z,991.92
2018-02-19T10:56:00.520Z,991.86
2018-02-19T10:57:00.692Z,991.88
2018-02-19T10:58:00.867Z,991.87
2018-02-19T10:59:01.041Z,991.83
2018-02-19T11:00:01.264Z,991.85
2018-02-19T11:01:01.394Z,991.83
2018-02-19T11:02:01.569Z,991.80
2018-02-19T11:03:01.744Z,991.76
2018-02-19T11:04:01.950Z,991.77
2018-02-19T11:05:02.095Z,991.80
2018-02-19T11:06:02.269Z,991.78
2018-02-19T11:07:02.443Z,991.76
2018-02-19T11:08:02.627Z,991.77
2018-02-19T11:09:02.791Z,991.78
2018-02-19T11:10:02.966Z,991.79
2018-02-19T11:11:03.142Z,991.79
2018-02-19T11:12:03.316Z,991.79
2018-02-19T11:13:03.492Z,991.81
2018-02-19T11:14:03.670Z,991.76
2018-02-19T11:15:03.846Z,991.76
2018-02-19T11:16:04.018Z,991.75
2018-02-19T11:17:04.199Z,991.72
2018-02-19T11:18:04.379Z,991.71
2018-02-19T11:19:04.549Z,991.71
2018-02-19T11:20:04.730Z,991.68
2018-02-19T11:21:04.908Z,991.69
2018-02-19T11:22:05.083Z,991.70
2018-02-19T11:23:05.261Z,991.69
2018-02-19T11:24:05.437Z,991.69
2018-02-19T11:25:05.613Z,991.67
2018-02-19T11:26:05.790Z,991.64
2018-02-19T11:27:05.968Z,991.67
2018-02-19T11:28:06.144Z,991.63
2018-02-19T11:29:06.322Z,991.63
2018-02-19T11:30:06.499Z,991.62
2018-02-19T11:31:06.674Z,991.62
2018-02-19T11:32:06.854Z,991.62
2018-02-19T11:33:07.031Z,991.60
2018-02-19T11:34:07.206Z,991.58
2018-02-19T11:35:07.385Z,991.58
2018-02-19T11:36:07.561Z,991.57
2018-02-19T11:37:12.643Z,991.49
2018-02-19T11:38:08.583Z,991.46
2018-02-19T11:39:08.172Z,991.52
2018-02-19T11:40:08.270Z,991.51
2018-02-19T11:41:08.440Z,991.47
2018-02-19T11:42:08.612Z,991.48
2018-02-19T11:43:08.788Z,991.46
2018-02-19T11:44:08.962Z,991.45
2018-02-19T11:45:09.137Z,991.44
2018-02-19T11:46:09.313Z,991.41
2018-02-19T11:47:09.486Z,991.38
2018-02-19T11:48:09.658Z,991.39
2018-02-19T11:49:09.836Z,991.35
2018-02-19T11:50:10.010Z,991.35
2018-02-19T11:51:10.189Z,991.35
2018-02-19T11:52:10.358Z,991.34
2018-02-19T11:53:10.533Z,991.34
2018-02-19T11:54:10.708Z,991.33
2018-02-19T11:55:10.884Z,991.27
2018-02-19T11:56:11.060Z,991.28
2018-02-19T11:57:11.233Z,991.24
2018-02-19T11:58:11.412Z,991.28
2018-02-19T11:59:11.586Z,991.29
2018-02-19T12:00:11.767Z,991.27
2018-02-19T12:01:11.929Z,991.27
2018-02-19T12:02:12.109Z,991.24
2018-02-19T12:03:12.283Z,991.24
2018-02-19T12:04:12.458Z,991.18
2018-02-19T12:05:12.640Z,991.22
2018-02-19T12:06:12.806Z,991.22
2018-02-19T12:07:12.981Z,991.20
2018-02-19T12:08:13.155Z,991.17
2018-02-19T12:09:13.330Z,991.17
2018-02-19T12:10:13.500Z,991.18
2018-02-19T12:11:13.680Z,991.16
2018-02-19T12:12:13.855Z,991.12
2018-02-19T12:13:14.030Z,991.10
2018-02-19T12:14:14.204Z,991.11
2018-02-19T12:15:14.379Z,991.10
2018-02-19T12:16:14.560Z,991.12
2018-02-19T12:17:14.726Z,991.16
2018-02-19T12:18:14.901Z,991.14
2018-02-19T12:19:15.072Z,991.11
2018-02-19T12:20:15.248Z,991.11
2018-02-19T12:21:15.422Z,991.09
2018-02-19T12:22:15.598Z,991.08
2018-02-19T12:23:15.772Z,991.11
2018-02-19T12:24:15.945Z,991.08
2018-02-19T12:25:16.123Z,991.07
2018-02-19T12:26:16.297Z,991.06
2018-02-19T12:27:16.477Z,991.06
2018-02-19T12:28:16.643Z,991.05
2018-02-19T12:29:16.817Z,991.06
2018-02-19T12:30:16.996Z,991.07